sensor_id;sensor_type;location;lat;lon;timestamp;pressure;altitude;pressure_sealevel;temperature;humidity
33727;BME280;20057;44.714;10.196;2022-07-22T02:02:40;98393.66;;;25.14;73.69
33727;BME280;20057;44.714;10.196;2022-07-22T02:05:07;98391.13;;;25.16;76.81
33727;BME280;20057;44.714;10.196;2022-07-22T02:07:35;98390.22;;;24.95;79.43
33727;BME280;20057;44.714;10.196;2022-07-22T02:10:04;98381.06;;;24.91;76.12
33727;BME280;20057;44.714;10.196;2022-07-22T02:12:34;98390.81;;;24.99;73.89
33727;BME280;20057;44.714;10.196;2022-07-22T02:15:03;98390.22;;;25.10;72.84
33727;BME280;20057;44.714;10.196;2022-07-22T02:17:32;98384.69;;;25.21;72.43
33727;BME280;20057;44.714;10.196;2022-07-22T02:20:00;98387.47;;;25.15;72.94
33727;BME280;20057;44.714;10.196;2022-07-22T02:22:27;98389.63;;;25.20;72.52
33727;BME280;20057;44.714;10.196;2022-07-22T02:24:55;98387.56;;;25.21;71.03
33727;BME280;20057;44.714;10.196;2022-07-22T02:27:22;98388.25;;;25.30;69.50
33727;BME280;20057;44.714;10.196;2022-07-22T02:29:50;98387.84;;;25.37;69.50
33727;BME280;20057;44.714;10.196;2022-07-22T02:32:18;98386.84;;;25.40;69.52
33727;BME280;20057;44.714;10.196;2022-07-22T02:34:45;98378.25;;;25.40;69.17
33727;BME280;20057;44.714;10.196;2022-07-22T02:37:12;98380.53;;;25.36;68.54
33727;BME280;20057;44.714;10.196;2022-07-22T02:39:40;98389.72;;;25.40;68.44
33727;BME280;20057;44.714;10.196;2022-07-22T02:42:07;98390.88;;;25.34;70.34
33727;BME280;20057;44.714;10.196;2022-07-22T02:44:35;98384.78;;;25.12;73.33
33727;BME280;20057;44.714;10.196;2022-07-22T02:47:03;98389.03;;;25.02;74.92
33727;BME280;20057;44.714;10.196;2022-07-22T02:49:33;98385.28;;;24.96;71.46
33727;BME280;20057;44.714;10.196;2022-07-22T02:52:01;98392.56;;;24.97;71.77
33727;BME280;20057;44.714;10.196;2022-07-22T02:54:29;98386.84;;;24.97;72.39
33727;BME280;20057;44.714;10.196;2022-07-22T02:56:56;98395.13;;;24.95;72.78
33727;BME280;20057;44.714;10.196;2022-07-22T02:59:25;98390.09;;;24.90;72.05
33727;BME280;20057;44.714;10.196;2022-07-22T03:01:52;98393.66;;;24.99;71.89
33727;BME280;20057;44.714;10.196;2022-07-22T03:04:20;98392.91;;;24.99;71.89
33727;BME280;20057;44.714;10.196;2022-07-22T03:06:48;98398.13;;;25.00;73.31
33727;BME280;20057;44.714;10.196;2022-07-22T03:09:19;98395.94;;;24.95;73.54
33727;BME280;20057;44.714;10.196;2022-07-22T03:11:46;98395.81;;;24.90;74.93
33727;BME280;20057;44.714;10.196;2022-07-22T03:14:14;98401.94;;;24.83;75.27
33727;BME280;20057;44.714;10.196;2022-07-22T03:16:43;98399.44;;;24.75;75.44
33727;BME280;20057;44.714;10.196;2022-07-22T03:19:10;98389.59;;;24.76;76.38
33727;BME280;20057;44.714;10.196;2022-07-22T03:21:38;98398.22;;;24.67;76.81
33727;BME280;20057;44.714;10.196;2022-07-22T03:24:06;98399.81;;;24.54;78.44
33727;BME280;20057;44.714;10.196;2022-07-22T03:26:34;98403.00;;;24.32;81.49
33727;BME280;20057;44.714;10.196;2022-07-22T03:29:01;98405.34;;;24.34;80.30
33727;BME280;20057;44.714;10.196;2022-07-22T03:31:29;98400.31;;;24.29;81.43
33727;BME280;20057;44.714;10.196;2022-07-22T03:33:56;98398.13;;;24.24;81.20
33727;BME280;20057;44.714;10.196;2022-07-22T03:36:27;98399.41;;;24.23;81.59
33727;BME280;20057;44.714;10.196;2022-07-22T03:38:56;98406.59;;;24.18;81.84
33727;BME280;20057;44.714;10.196;2022-07-22T03:41:23;98408.38;;;24.15;81.44
33727;BME280;20057;44.714;10.196;2022-07-22T03:43:51;98410.13;;;24.04;83.36
33727;BME280;20057;44.714;10.196;2022-07-22T03:46:18;98414.91;;;24.07;82.82
33727;BME280;20057;44.714;10.196;2022-07-22T03:48:46;98409.66;;;24.05;83.49
33727;BME280;20057;44.714;10.196;2022-07-22T03:51:14;98414.75;;;24.01;84.01
33727;BME280;20057;44.714;10.196;2022-07-22T03:53:42;98415.25;;;24.00;83.91
33727;BME280;20057;44.714;10.196;2022-07-22T03:56:09;98414.09;;;24.06;80.82
33727;BME280;20057;44.714;10.196;2022-07-22T03:58:36;98416.63;;;24.13;81.11
33727;BME280;20057;44.714;10.196;2022-07-22T04:01:04;98417.97;;;24.27;80.57
33727;BME280;20057;44.714;10.196;2022-07-22T04:03:31;98418.09;;;24.33;79.07
33727;BME280;20057;44.714;10.196;2022-07-22T04:05:59;98426.03;;;24.29;79.56
33727;BME280;20057;44.714;10.196;2022-07-22T04:08:47;98421.63;;;24.28;79.65
33727;BME280;20057;44.714;10.196;2022-07-22T04:11:16;98425.75;;;24.27;81.11
33727;BME280;20057;44.714;10.196;2022-07-22T04:13:44;98417.75;;;24.31;81.45
33727;BME280;20057;44.714;10.196;2022-07-22T04:16:11;98427.94;;;24.32;81.18
33727;BME280;20057;44.714;10.196;2022-07-22T04:18:47;98428.53;;;24.36;80.98
33727;BME280;20057;44.714;10.196;2022-07-22T04:21:16;98426.00;;;24.38;80.82
33727;BME280;20057;44.714;10.196;2022-07-22T04:23:50;98421.03;;;24.38;79.97
33727;BME280;20057;44.714;10.196;2022-07-22T04:26:25;98426.78;;;24.53;79.32
33727;BME280;20057;44.714;10.196;2022-07-22T04:28:53;98425.38;;;24.72;78.30
33727;BME280;20057;44.714;10.196;2022-07-22T04:31:21;98426.88;;;24.82;77.80
33727;BME280;20057;44.714;10.196;2022-07-22T04:33:54;98435.88;;;24.90;77.08
33727;BME280;20057;44.714;10.196;2022-07-22T04:36:22;98432.16;;;24.98;76.36
33727;BME280;20057;44.714;10.196;2022-07-22T04:38:51;98428.91;;;25.05;76.34
33727;BME280;20057;44.714;10.196;2022-07-22T04:41:19;98432.66;;;25.11;77.93
33727;BME280;20057;44.714;10.196;2022-07-22T04:43:46;98430.28;;;25.24;74.46
33727;BME280;20057;44.714;10.196;2022-07-22T04:46:13;98437.88;;;25.57;73.75
33727;BME280;20057;44.714;10.196;2022-07-22T04:48:43;98445.44;;;25.89;72.83
33727;BME280;20057;44.714;10.196;2022-07-22T04:51:10;98441.19;;;26.19;72.67
33727;BME280;20057;44.714;10.196;2022-07-22T04:53:39;98442.94;;;26.51;71.45
33727;BME280;20057;44.714;10.196;2022-07-22T04:56:06;98433.53;;;26.91;67.52
33727;BME280;20057;44.714;10.196;2022-07-22T04:58:33;98443.88;;;27.34;62.35
33727;BME280;20057;44.714;10.196;2022-07-22T05:01:01;98450.31;;;27.81;60.67
33727;BME280;20057;44.714;10.196;2022-07-22T05:03:28;98449.66;;;28.34;58.67
33727;BME280;20057;44.714;10.196;2022-07-22T05:05:56;98452.56;;;28.98;57.91
33727;BME280;20057;44.714;10.196;2022-07-22T05:08:32;98453.97;;;29.31;55.69
33727;BME280;20057;44.714;10.196;2022-07-22T05:11:00;98448.50;;;29.55;49.26
33727;BME280;20057;44.714;10.196;2022-07-22T05:13:27;98461.34;;;29.70;47.11
33727;BME280;20057;44.714;10.196;2022-07-22T05:15:54;98456.09;;;30.02;47.20
33727;BME280;20057;44.714;10.196;2022-07-22T05:18:22;98461.47;;;30.67;46.25
33727;BME280;20057;44.714;10.196;2022-07-22T05:20:49;98454.53;;;31.03;44.12
33727;BME280;20057;44.714;10.196;2022-07-22T05:23:16;98452.44;;;31.44;42.65
33727;BME280;20057;44.714;10.196;2022-07-22T05:25:44;98464.63;;;31.97;43.87
33727;BME280;20057;44.714;10.196;2022-07-22T05:28:11;98456.56;;;31.84;43.75
33727;BME280;20057;44.714;10.196;2022-07-22T05:30:42;98457.31;;;31.90;39.65
33727;BME280;20057;44.714;10.196;2022-07-22T05:33:09;98462.03;;;31.93;39.07
33727;BME280;20057;44.714;10.196;2022-07-22T05:35:55;98458.13;;;31.55;39.69
33727;BME280;20057;44.714;10.196;2022-07-22T05:38:23;98454.38;;;31.25;40.03
33727;BME280;20057;44.714;10.196;2022-07-22T05:40:51;98456.72;;;30.75;41.25
33727;BME280;20057;44.714;10.196;2022-07-22T05:43:18;98447.38;;;30.30;42.27
33727;BME280;20057;44.714;10.196;2022-07-22T05:45:45;98455.03;;;30.27;45.47
33727;BME280;20057;44.714;10.196;2022-07-22T05:48:13;98447.44;;;30.13;45.14
33727;BME280;20057;44.714;10.196;2022-07-22T05:50:40;98454.53;;;30.12;47.71
33727;BME280;20057;44.714;10.196;2022-07-22T05:53:08;98457.16;;;30.05;45.16
33727;BME280;20057;44.714;10.196;2022-07-22T05:55:35;98464.22;;;30.09;45.51
33727;BME280;20057;44.714;10.196;2022-07-22T05:58:02;98459.25;;;30.04;45.25
33727;BME280;20057;44.714;10.196;2022-07-22T06:00:30;98465.53;;;30.08;46.72
33727;BME280;20057;44.714;10.196;2022-07-22T06:03:00;98458.47;;;30.09;45.29
33727;BME280;20057;44.714;10.196;2022-07-22T06:05:27;98463.72;;;30.05;44.96
33727;BME280;20057;44.714;10.196;2022-07-22T06:08:05;98465.28;;;29.89;45.15
33727;BME280;20057;44.714;10.196;2022-07-22T06:10:41;98465.84;;;29.88;46.48
33727;BME280;20057;44.714;10.196;2022-07-22T06:13:08;98468.44;;;30.03;46.93
33727;BME280;20057;44.714;10.196;2022-07-22T06:15:37;98458.72;;;30.06;47.28
33727;BME280;20057;44.714;10.196;2022-07-22T06:18:04;98467.94;;;29.93;49.19
33727;BME280;20057;44.714;10.196;2022-07-22T06:20:32;98466.34;;;29.86;49.47
33727;BME280;20057;44.714;10.196;2022-07-22T06:22:59;98464.25;;;29.92;49.82
33727;BME280;20057;44.714;10.196;2022-07-22T06:25:26;98469.75;;;29.90;50.17
33727;BME280;20057;44.714;10.196;2022-07-22T06:28:09;98473.44;;;29.85;51.40
33727;BME280;20057;44.714;10.196;2022-07-22T06:30:38;98474.97;;;29.81;52.15
33727;BME280;20057;44.714;10.196;2022-07-22T06:33:06;98475.53;;;29.85;52.13
33727;BME280;20057;44.714;10.196;2022-07-22T06:35:34;98480.75;;;29.92;52.01
33727;BME280;20057;44.714;10.196;2022-07-22T06:38:02;98491.50;;;29.80;52.80
33727;BME280;20057;44.714;10.196;2022-07-22T06:40:39;98481.00;;;29.72;51.85
33727;BME280;20057;44.714;10.196;2022-07-22T06:43:27;98487.28;;;29.70;53.44
33727;BME280;20057;44.714;10.196;2022-07-22T06:46:21;98482.56;;;29.73;55.14
33727;BME280;20057;44.714;10.196;2022-07-22T06:48:52;98489.13;;;29.79;54.18
33727;BME280;20057;44.714;10.196;2022-07-22T06:51:19;98484.44;;;29.87;54.18
33727;BME280;20057;44.714;10.196;2022-07-22T06:53:48;98490.72;;;29.97;54.24
33727;BME280;20057;44.714;10.196;2022-07-22T06:56:16;98488.63;;;29.97;54.66
33727;BME280;20057;44.714;10.196;2022-07-22T06:58:43;98494.91;;;30.01;54.14
33727;BME280;20057;44.714;10.196;2022-07-22T07:01:11;98500.94;;;30.03;53.84
33727;BME280;20057;44.714;10.196;2022-07-22T07:03:49;98503.81;;;30.14;53.25
33727;BME280;20057;44.714;10.196;2022-07-22T07:06:16;98498.31;;;30.27;51.82
33727;BME280;20057;44.714;10.196;2022-07-22T07:09:13;98499.59;;;30.26;52.73
33727;BME280;20057;44.714;10.196;2022-07-22T07:11:44;98497.25;;;30.36;51.08
33727;BME280;20057;44.714;10.196;2022-07-22T07:14:17;98503.03;;;30.41;51.39
33727;BME280;20057;44.714;10.196;2022-07-22T07:16:44;98500.38;;;30.32;49.93
33727;BME280;20057;44.714;10.196;2022-07-22T07:19:12;98502.75;;;30.39;50.38
33727;BME280;20057;44.714;10.196;2022-07-22T07:21:39;98504.06;;;30.44;50.17
33727;BME280;20057;44.714;10.196;2022-07-22T07:24:06;98512.19;;;30.51;49.25
33727;BME280;20057;44.714;10.196;2022-07-22T07:26:34;98507.16;;;30.63;47.40
33727;BME280;20057;44.714;10.196;2022-07-22T07:29:01;98512.13;;;30.62;47.96
33727;BME280;20057;44.714;10.196;2022-07-22T07:31:33;98509.50;;;30.64;46.97
33727;BME280;20057;44.714;10.196;2022-07-22T07:34:08;98516.28;;;30.83;47.31
33727;BME280;20057;44.714;10.196;2022-07-22T07:36:35;98511.00;;;30.82;47.69
33727;BME280;20057;44.714;10.196;2022-07-22T07:39:04;98524.41;;;30.85;49.05
33727;BME280;20057;44.714;10.196;2022-07-22T07:41:32;98519.38;;;30.96;48.19
33727;BME280;20057;44.714;10.196;2022-07-22T07:44:00;98516.97;;;31.06;48.54
33727;BME280;20057;44.714;10.196;2022-07-22T07:46:27;98516.78;;;30.93;50.98
33727;BME280;20057;44.714;10.196;2022-07-22T07:48:56;98520.72;;;30.95;52.10
33727;BME280;20057;44.714;10.196;2022-07-22T07:51:23;98513.06;;;31.03;49.57
33727;BME280;20057;44.714;10.196;2022-07-22T07:53:52;98511.97;;;31.17;51.14
33727;BME280;20057;44.714;10.196;2022-07-22T07:56:19;98517.66;;;31.29;50.69
33727;BME280;20057;44.714;10.196;2022-07-22T07:58:47;98515.03;;;31.31;50.49
33727;BME280;20057;44.714;10.196;2022-07-22T08:01:27;98516.31;;;31.35;51.11
33727;BME280;20057;44.714;10.196;2022-07-22T08:04:07;98517.59;;;31.45;51.22
33727;BME280;20057;44.714;10.196;2022-07-22T08:06:49;98524.13;;;31.51;51.58
33727;BME280;20057;44.714;10.196;2022-07-22T08:09:16;98515.63;;;31.64;51.11
33727;BME280;20057;44.714;10.196;2022-07-22T08:11:44;98527.13;;;31.75;52.11
33727;BME280;20057;44.714;10.196;2022-07-22T08:14:39;98525.06;;;31.70;53.46
33727;BME280;20057;44.714;10.196;2022-07-22T08:17:24;98527.16;;;31.70;52.64
33727;BME280;20057;44.714;10.196;2022-07-22T08:19:52;98529.81;;;31.68;54.10
33727;BME280;20057;44.714;10.196;2022-07-22T08:22:19;98525.13;;;31.59;53.55
33727;BME280;20057;44.714;10.196;2022-07-22T08:24:47;98526.09;;;31.73;53.22
33727;BME280;20057;44.714;10.196;2022-07-22T08:27:16;98524.00;;;31.68;57.96
33727;BME280;20057;44.714;10.196;2022-07-22T08:29:44;98518.47;;;31.70;57.50
33727;BME280;20057;44.714;10.196;2022-07-22T08:32:12;98521.88;;;31.74;57.53
33727;BME280;20057;44.714;10.196;2022-07-22T08:34:40;98533.44;;;31.74;55.07
33727;BME280;20057;44.714;10.196;2022-07-22T08:37:08;98521.41;;;31.64;60.42
33727;BME280;20057;44.714;10.196;2022-07-22T08:39:35;98523.19;;;31.73;59.74
33727;BME280;20057;44.714;10.196;2022-07-22T08:42:03;98526.44;;;31.58;59.04
33727;BME280;20057;44.714;10.196;2022-07-22T08:44:30;98525.63;;;31.63;59.55
33727;BME280;20057;44.714;10.196;2022-07-22T08:46:59;98519.63;;;31.56;62.06
33727;BME280;20057;44.714;10.196;2022-07-22T08:50:03;98526.31;;;31.75;61.18
33727;BME280;20057;44.714;10.196;2022-07-22T08:52:49;98519.38;;;31.89;60.88
33727;BME280;20057;44.714;10.196;2022-07-22T08:55:17;98523.09;;;31.84;57.58
33727;BME280;20057;44.714;10.196;2022-07-22T08:57:49;98519.69;;;31.86;60.42
33727;BME280;20057;44.714;10.196;2022-07-22T09:00:19;98512.94;;;32.07;62.45
33727;BME280;20057;44.714;10.196;2022-07-22T09:02:47;98515.06;;;32.07;60.86
33727;BME280;20057;44.714;10.196;2022-07-22T09:05:15;98517.44;;;32.08;59.57
33727;BME280;20057;44.714;10.196;2022-07-22T09:08:04;98516.72;;;32.26;60.45
33727;BME280;20057;44.714;10.196;2022-07-22T09:10:43;98525.63;;;32.28;56.70
33727;BME280;20057;44.714;10.196;2022-07-22T09:13:28;98521.97;;;32.28;63.38
33727;BME280;20057;44.714;10.196;2022-07-22T09:16:42;98522.28;;;32.48;58.74
33727;BME280;20057;44.714;10.196;2022-07-22T09:19:32;98527.19;;;32.35;57.92
33727;BME280;20057;44.714;10.196;2022-07-22T09:30:52;98515.31;;;32.63;56.07
33727;BME280;20057;44.714;10.196;2022-07-22T09:33:21;98515.53;;;32.65;57.72
33727;BME280;20057;44.714;10.196;2022-07-22T09:36:01;98514.56;;;32.62;61.55
33727;BME280;20057;44.714;10.196;2022-07-22T09:38:29;98507.63;;;32.41;60.26
33727;BME280;20057;44.714;10.196;2022-07-22T09:40:58;98500.19;;;32.51;57.76
33727;BME280;20057;44.714;10.196;2022-07-22T09:43:25;98502.84;;;32.19;60.30
33727;BME280;20057;44.714;10.196;2022-07-22T09:45:59;98505.72;;;32.49;59.51
33727;BME280;20057;44.714;10.196;2022-07-22T09:48:50;98499.34;;;32.56;56.72
33727;BME280;20057;44.714;10.196;2022-07-22T09:51:33;98502.66;;;32.66;55.13
33727;BME280;20057;44.714;10.196;2022-07-22T09:54:15;98498.16;;;32.65;58.88
33727;BME280;20057;44.714;10.196;2022-07-22T09:56:43;98494.56;;;32.59;58.29
33727;BME280;20057;44.714;10.196;2022-07-22T09:59:13;98499.06;;;32.60;59.00
33727;BME280;20057;44.714;10.196;2022-07-22T10:01:45;98492.47;;;32.59;64.62
33727;BME280;20057;44.714;10.196;2022-07-22T10:04:14;98493.59;;;32.51;56.04
33727;BME280;20057;44.714;10.196;2022-07-22T10:06:42;98494.81;;;32.61;59.02
33727;BME280;20057;44.714;10.196;2022-07-22T10:09:15;98492.88;;;32.69;60.94
33727;BME280;20057;44.714;10.196;2022-07-22T10:11:44;98489.84;;;32.80;60.15
33727;BME280;20057;44.714;10.196;2022-07-22T10:14:17;98489.78;;;32.85;58.16
33727;BME280;20057;44.714;10.196;2022-07-22T10:16:48;98494.53;;;32.83;52.13
33727;BME280;20057;44.714;10.196;2022-07-22T10:19:15;98486.41;;;32.81;57.28
33727;BME280;20057;44.714;10.196;2022-07-22T10:21:42;98488.47;;;32.86;52.33
33727;BME280;20057;44.714;10.196;2022-07-22T10:24:14;98487.72;;;32.80;57.48
33727;BME280;20057;44.714;10.196;2022-07-22T10:26:52;98480.69;;;32.94;49.39
33727;BME280;20057;44.714;10.196;2022-07-22T10:29:39;98478.66;;;32.89;52.73
33727;BME280;20057;44.714;10.196;2022-07-22T10:45:28;98461.34;;;33.08;54.92
33727;BME280;20057;44.714;10.196;2022-07-22T10:47:58;98463.38;;;33.13;57.81
33727;BME280;20057;44.714;10.196;2022-07-22T10:53:05;98449.97;;;33.10;53.19
33727;BME280;20057;44.714;10.196;2022-07-22T10:55:33;98457.91;;;33.28;54.80
33727;BME280;20057;44.714;10.196;2022-07-22T10:58:47;98450.50;;;33.46;54.87
33727;BME280;20057;44.714;10.196;2022-07-22T11:00:48;98452.63;;;33.45;54.70
33727;BME280;20057;44.714;10.196;2022-07-22T11:03:25;98455.66;;;33.53;50.65
33727;BME280;20057;44.714;10.196;2022-07-22T11:05:52;98456.84;;;33.63;53.81
33727;BME280;20057;44.714;10.196;2022-07-22T11:08:19;98455.19;;;33.67;54.66
33727;BME280;20057;44.714;10.196;2022-07-22T11:10:50;98455.75;;;33.66;57.11
33727;BME280;20057;44.714;10.196;2022-07-22T11:13:30;98449.56;;;33.56;58.16
33727;BME280;20057;44.714;10.196;2022-07-22T11:18:50;98440.47;;;33.47;55.00
33727;BME280;20057;44.714;10.196;2022-07-22T11:21:19;98441.16;;;33.53;54.36
33727;BME280;20057;44.714;10.196;2022-07-22T11:23:47;98440.47;;;33.47;57.07
33727;BME280;20057;44.714;10.196;2022-07-22T11:26:16;98436.31;;;33.42;51.64
33727;BME280;20057;44.714;10.196;2022-07-22T11:28:44;98432.84;;;33.44;55.08
33727;BME280;20057;44.714;10.196;2022-07-22T11:31:15;98436.66;;;33.20;52.94
33727;BME280;20057;44.714;10.196;2022-07-22T11:33:43;98431.53;;;33.26;53.04
33727;BME280;20057;44.714;10.196;2022-07-22T11:36:11;98426.63;;;33.21;51.86
33727;BME280;20057;44.714;10.196;2022-07-22T11:38:42;98420.66;;;33.14;50.89
33727;BME280;20057;44.714;10.196;2022-07-22T11:41:12;98418.41;;;33.25;51.19
33727;BME280;20057;44.714;10.196;2022-07-22T11:43:44;98417.38;;;33.23;50.35
33727;BME280;20057;44.714;10.196;2022-07-22T11:46:11;98410.41;;;33.13;50.64
33727;BME280;20057;44.714;10.196;2022-07-22T11:48:40;98410.94;;;33.30;55.97
33727;BME280;20057;44.714;10.196;2022-07-22T11:51:09;98405.84;;;33.36;56.46
33727;BME280;20057;44.714;10.196;2022-07-22T11:53:38;98404.31;;;33.48;57.96
33727;BME280;20057;44.714;10.196;2022-07-22T11:56:06;98409.72;;;33.25;57.13
33727;BME280;20057;44.714;10.196;2022-07-22T11:58:43;98391.34;;;33.36;56.57
33727;BME280;20057;44.714;10.196;2022-07-22T12:01:15;98403.03;;;33.30;55.19
33727;BME280;20057;44.714;10.196;2022-07-22T12:03:48;98393.94;;;33.39;57.43
33727;BME280;20057;44.714;10.196;2022-07-22T12:06:16;98387.56;;;33.41;54.62
33727;BME280;20057;44.714;10.196;2022-07-22T12:08:44;98393.38;;;33.41;54.26
33727;BME280;20057;44.714;10.196;2022-07-22T12:11:13;98385.69;;;33.43;55.15
33727;BME280;20057;44.714;10.196;2022-07-22T12:13:42;98394.84;;;33.66;55.25
33727;BME280;20057;44.714;10.196;2022-07-22T12:16:21;98378.53;;;33.63;54.62
33727;BME280;20057;44.714;10.196;2022-07-22T12:21:22;98377.56;;;33.73;61.67
33727;BME280;20057;44.714;10.196;2022-07-22T12:23:51;98371.06;;;33.67;57.74
33727;BME280;20057;44.714;10.196;2022-07-22T12:26:19;98380.09;;;33.64;56.43
33727;BME280;20057;44.714;10.196;2022-07-22T12:28:46;98374.31;;;33.64;59.49
33727;BME280;20057;44.714;10.196;2022-07-22T12:31:13;98364.38;;;33.72;57.34
33727;BME280;20057;44.714;10.196;2022-07-22T12:33:46;98366.94;;;33.63;53.66
33727;BME280;20057;44.714;10.196;2022-07-22T12:36:13;98360.59;;;33.64;58.99
33727;BME280;20057;44.714;10.196;2022-07-22T12:38:41;98367.09;;;33.52;58.31
33727;BME280;20057;44.714;10.196;2022-07-22T12:41:24;98363.00;;;33.60;60.44
33727;BME280;20057;44.714;10.196;2022-07-22T12:43:52;98361.69;;;33.61;55.98
33727;BME280;20057;44.714;10.196;2022-07-22T12:46:19;98366.19;;;33.44;55.90
33727;BME280;20057;44.714;10.196;2022-07-22T12:48:51;98354.81;;;33.46;60.37
33727;BME280;20057;44.714;10.196;2022-07-22T12:51:18;98355.81;;;33.48;58.58
33727;BME280;20057;44.714;10.196;2022-07-22T12:53:46;98349.06;;;33.59;61.55
33727;BME280;20057;44.714;10.196;2022-07-22T12:56:13;98351.88;;;33.64;56.53
33727;BME280;20057;44.714;10.196;2022-07-22T12:58:40;98362.56;;;33.56;53.37
33727;BME280;20057;44.714;10.196;2022-07-22T13:01:08;98353.03;;;33.75;54.09
33727;BME280;20057;44.714;10.196;2022-07-22T13:03:36;98352.59;;;33.84;52.60
33727;BME280;20057;44.714;10.196;2022-07-22T13:06:03;98351.25;;;33.98;56.32
33727;BME280;20057;44.714;10.196;2022-07-22T13:08:31;98350.94;;;34.01;59.50
33727;BME280;20057;44.714;10.196;2022-07-22T13:11:07;98345.91;;;34.02;53.65
33727;BME280;20057;44.714;10.196;2022-07-22T13:13:34;98352.03;;;33.98;53.00
33727;BME280;20057;44.714;10.196;2022-07-22T13:16:02;98342.22;;;33.88;54.72
33727;BME280;20057;44.714;10.196;2022-07-22T13:18:29;98335.41;;;33.86;57.03
33727;BME280;20057;44.714;10.196;2022-07-22T13:20:56;98331.41;;;33.89;56.56
33727;BME280;20057;44.714;10.196;2022-07-22T13:23:23;98325.78;;;33.78;58.28
33727;BME280;20057;44.714;10.196;2022-07-22T13:25:52;98330.81;;;33.90;62.26
33727;BME280;20057;44.714;10.196;2022-07-22T13:28:21;98329.50;;;33.91;58.51
33727;BME280;20057;44.714;10.196;2022-07-22T13:30:49;98326.25;;;33.95;57.90
33727;BME280;20057;44.714;10.196;2022-07-22T13:33:16;98324.38;;;33.84;57.11
33727;BME280;20057;44.714;10.196;2022-07-22T13:35:44;98330.25;;;33.79;56.94
33727;BME280;20057;44.714;10.196;2022-07-22T13:38:11;98326.78;;;33.67;56.81
33727;BME280;20057;44.714;10.196;2022-07-22T13:40:41;98326.03;;;33.48;58.60
33727;BME280;20057;44.714;10.196;2022-07-22T13:43:08;98318.84;;;33.23;60.14
33727;BME280;20057;44.714;10.196;2022-07-22T13:45:40;98316.09;;;33.12;61.36
33727;BME280;20057;44.714;10.196;2022-07-22T13:48:08;98309.69;;;33.00;64.57
33727;BME280;20057;44.714;10.196;2022-07-22T13:50:35;98313.31;;;32.87;61.79
33727;BME280;20057;44.714;10.196;2022-07-22T13:53:03;98324.50;;;32.78;63.13
33727;BME280;20057;44.714;10.196;2022-07-22T13:55:30;98331.38;;;32.75;64.26
33727;BME280;20057;44.714;10.196;2022-07-22T13:57:57;98332.81;;;32.68;66.25
33727;BME280;20057;44.714;10.196;2022-07-22T14:00:25;98309.72;;;32.63;67.99
33727;BME280;20057;44.714;10.196;2022-07-22T14:02:52;98303.75;;;32.55;68.75
33727;BME280;20057;44.714;10.196;2022-07-22T14:05:19;98310.38;;;32.50;67.08
33727;BME280;20057;44.714;10.196;2022-07-22T14:07:46;98316.28;;;32.44;69.46
33727;BME280;20057;44.714;10.196;2022-07-22T14:10:14;98312.97;;;32.35;72.79
33727;BME280;20057;44.714;10.196;2022-07-22T14:12:41;98319.63;;;32.30;67.95
33727;BME280;20057;44.714;10.196;2022-07-22T14:15:09;98313.97;;;32.19;68.89
33727;BME280;20057;44.714;10.196;2022-07-22T14:17:36;98325.31;;;32.17;70.27
33727;BME280;20057;44.714;10.196;2022-07-22T14:20:04;98320.59;;;32.14;70.02
33727;BME280;20057;44.714;10.196;2022-07-22T14:22:34;98326.16;;;32.12;69.76
33727;BME280;20057;44.714;10.196;2022-07-22T14:25:01;98309.34;;;32.10;71.47
33727;BME280;20057;44.714;10.196;2022-07-22T14:27:29;98321.22;;;32.07;72.88
33727;BME280;20057;44.714;10.196;2022-07-22T14:29:56;98321.75;;;32.05;72.09
33727;BME280;20057;44.714;10.196;2022-07-22T14:32:24;98322.28;;;32.04;72.27
33727;BME280;20057;44.714;10.196;2022-07-22T14:34:51;98332.56;;;32.05;72.64
33727;BME280;20057;44.714;10.196;2022-07-22T14:37:18;98332.31;;;32.03;72.99
33727;BME280;20057;44.714;10.196;2022-07-22T14:39:48;98331.06;;;31.98;75.47
33727;BME280;20057;44.714;10.196;2022-07-22T14:42:15;98327.88;;;31.96;77.60
33727;BME280;20057;44.714;10.196;2022-07-22T14:44:42;98326.56;;;31.97;75.84
33727;BME280;20057;44.714;10.196;2022-07-22T14:47:09;98320.78;;;31.97;76.35
33727;BME280;20057;44.714;10.196;2022-07-22T14:49:37;98318.13;;;31.99;77.53
33727;BME280;20057;44.714;10.196;2022-07-22T14:52:06;98317.28;;;32.04;75.99
33727;BME280;20057;44.714;10.196;2022-07-22T14:54:33;98315.44;;;32.07;86.84
33727;BME280;20057;44.714;10.196;2022-07-22T14:57:00;98310.19;;;32.05;84.90
33727;BME280;20057;44.714;10.196;2022-07-22T14:59:28;98312.06;;;32.03;80.72
33727;BME280;20057;44.714;10.196;2022-07-22T15:01:56;98319.66;;;32.06;75.73
33727;BME280;20057;44.714;10.196;2022-07-22T15:04:23;98315.66;;;32.09;74.74
33727;BME280;20057;44.714;10.196;2022-07-22T15:06:50;98308.22;;;32.13;80.62
33727;BME280;20057;44.714;10.196;2022-07-22T15:09:18;98311.91;;;32.14;85.33
33727;BME280;20057;44.714;10.196;2022-07-22T15:11:45;98323.72;;;32.16;83.80
33727;BME280;20057;44.714;10.196;2022-07-22T15:14:12;98319.50;;;32.17;80.19
33727;BME280;20057;44.714;10.196;2022-07-22T15:16:40;98313.72;;;32.17;78.20
33727;BME280;20057;44.714;10.196;2022-07-22T15:19:07;98315.78;;;32.22;76.00
33727;BME280;20057;44.714;10.196;2022-07-22T15:21:34;98321.00;;;32.23;76.24
33727;BME280;20057;44.714;10.196;2022-07-22T15:24:01;98316.16;;;32.31;79.63
33727;BME280;20057;44.714;10.196;2022-07-22T15:26:29;98319.00;;;32.37;78.14
33727;BME280;20057;44.714;10.196;2022-07-22T15:28:57;98324.16;;;32.44;76.74
33727;BME280;20057;44.714;10.196;2022-07-22T15:31:25;98326.69;;;32.53;72.41
33727;BME280;20057;44.714;10.196;2022-07-22T15:33:53;98327.66;;;32.61;73.18
33727;BME280;20057;44.714;10.196;2022-07-22T15:36:21;98329.28;;;32.75;72.24